createdAt,value
2019-02-08T00:04:50.093Z,100087.02
2019-02-08T00:09:51.741Z,100083.25
2019-02-08T00:14:53.322Z,100091.50
2019-02-08T00:19:54.887Z,100094.80
2019-02-08T00:24:56.466Z,100093.27
2019-02-08T00:29:58.123Z,100086.41
2019-02-08T00:34:59.685Z,100101.63
2019-02-08T00:40:01.263Z,100109.78
2019-02-08T00:45:04.190Z,100109.55
2019-02-08T00:50:08.909Z,100111.54
2019-02-08T00:55:10.761Z,100116.28
2019-02-08T01:00:12.948Z,100102.45
2019-02-08T01:05:15.785Z,100107.55
2019-02-08T01:10:26.245Z,100104.47
2019-02-08T01:15:28.432Z,100092.78
2019-02-08T01:20:30.094Z,100114.28
2019-02-08T01:25:31.776Z,100109.31
2019-02-08T01:30:33.741Z,100125.53
2019-02-08T01:35:35.397Z,100113.36
2019-02-08T01:40:37.279Z,100117.83
2019-02-08T01:45:39.040Z,100131.30
2019-02-08T01:50:40.586Z,100136.86
2019-02-08T01:55:42.130Z,100137.80
2019-02-08T02:00:44.223Z,100153.74
2019-02-08T02:05:45.875Z,100146.31
2019-02-08T02:10:47.531Z,100152.17
2019-02-08T02:15:49.187Z,100157.86
2019-02-08T02:20:50.726Z,100144.38
2019-02-08T02:25:52.289Z,100162.92
2019-02-08T02:30:53.854Z,100161.77
2019-02-08T02:35:55.417Z,100152.44
2019-02-08T02:40:56.979Z,100146.98
2019-02-08T02:45:58.629Z,100150.78
2019-02-08T02:51:00.215Z,100149.48
2019-02-08T02:56:01.855Z,100153.74
2019-02-08T03:01:03.859Z,100158.58
2019-02-08T03:06:05.535Z,100157.73
2019-02-08T03:11:07.121Z,100162.92
2019-02-08T03:16:08.773Z,100173.56
2019-02-08T03:21:10.355Z,100169.77
2019-02-08T03:26:12.033Z,100180.73
2019-02-08T03:31:13.690Z,100185.11
2019-02-08T03:36:15.251Z,100187.13
2019-02-08T03:41:16.804Z,100198.23
2019-02-08T03:46:18.480Z,100200.48
2019-02-08T03:51:20.040Z,100196.94
2019-02-08T03:56:21.615Z,100192.77
2019-02-08T04:01:23.293Z,100184.53
2019-02-08T04:06:24.835Z,100187.22
2019-02-08T04:11:26.516Z,100181.94
2019-02-08T04:16:28.260Z,100189.97
2019-02-08T04:21:29.905Z,100185.61
2019-02-08T04:26:31.547Z,100196.69
2019-02-08T04:31:33.112Z,100197.91
2019-02-08T04:36:34.824Z,100206.63
2019-02-08T04:41:36.419Z,100207.06
2019-02-08T04:46:38.235Z,100204.23
2019-02-08T04:51:39.829Z,100206.59
2019-02-08T04:56:41.508Z,100206.67
2019-02-08T05:01:43.178Z,100211.05
2019-02-08T05:06:44.735Z,100207.16
2019-02-08T05:11:46.343Z,100210.21
2019-02-08T05:16:47.913Z,100213.89
2019-02-08T05:21:49.693Z,100217.84
2019-02-08T05:26:51.315Z,100223.33
2019-02-08T05:31:52.999Z,100215.19
2019-02-08T05:36:54.695Z,100215.06
2019-02-08T05:41:56.271Z,100215.91
2019-02-08T05:46:57.840Z,100208.46
2019-02-08T05:51:59.400Z,100209.39
2019-02-08T05:57:01.073Z,100210.21
2019-02-08T06:02:02.971Z,100206.29
2019-02-08T06:07:04.643Z,100206.84
2019-02-08T06:12:06.413Z,100208.48
2019-02-08T06:17:07.983Z,100209.78
2019-02-08T06:22:09.661Z,100211.80
2019-02-08T06:27:11.352Z,100211.80
2019-02-08T06:32:13.058Z,100216.06
2019-02-08T06:37:14.753Z,100207.70
2019-02-08T06:42:16.355Z,100213.70
2019-02-08T06:47:17.944Z,100216.66
2019-02-08T06:52:19.518Z,100218.92
2019-02-08T06:57:38.814Z,100220.48
2019-02-08T07:02:56.680Z,100227.73
2019-02-08T07:08:08.417Z,100229.16
2019-02-08T07:13:17.322Z,100220.35
2019-02-08T07:18:44.569Z,100222.97
2019-02-08T07:23:52.305Z,100221.90
2019-02-08T07:29:01.542Z,100243.33
2019-02-08T07:34:23.520Z,100238.48
2019-02-08T07:39:52.048Z,100237.92
2019-02-08T07:45:05.553Z,100231.09
2019-02-08T07:50:25.351Z,100231.81
2019-02-08T07:55:45.520Z,100233.03
2019-02-08T08:01:05.618Z,100232.69
2019-02-08T08:06:42.375Z,100241.34
2019-02-08T08:12:07.976Z,100222.20
2019-02-08T08:17:47.631Z,100235.82
2019-02-08T08:23:11.688Z,100232.27
2019-02-08T08:28:21.400Z,100250.72
2019-02-08T08:33:35.227Z,100254.29
2019-02-08T08:39:14.194Z,100255.09
2019-02-08T08:44:51.070Z,100249.64
2019-02-08T08:50:27.480Z,100246.55
2019-02-08T08:56:29.746Z,100247.02
2019-02-08T09:02:25.465Z,100247.83
2019-02-08T09:08:15.371Z,100246.85
2019-02-08T09:13:58.259Z,100243.87
2019-02-08T09:19:51.339Z,100242.67
2019-02-08T09:25:38.268Z,100245.61
2019-02-08T09:31:36.783Z,100236.92
2019-02-08T09:37:35.884Z,100223.96
2019-02-08T09:43:21.261Z,100224.88
2019-02-08T09:49:20.368Z,100222.34
2019-02-08T09:55:09.965Z,100221.32
2019-02-08T10:00:48.319Z,100205.27
2019-02-08T10:06:26.940Z,100211.10
2019-02-08T10:12:07.356Z,100226.82
2019-02-08T10:17:41.300Z,100225.42
2019-02-08T10:23:21.057Z,100215.52
2019-02-08T10:29:10.894Z,100214.97
2019-02-08T10:34:52.989Z,100201.95
2019-02-08T10:40:29.359Z,100200.63
2019-02-08T10:46:08.278Z,100196.27
2019-02-08T10:52:06.101Z,100197.56
2019-02-08T10:57:38.333Z,100204.09
2019-02-08T11:03:16.968Z,100189.72
2019-02-08T11:08:57.059Z,100191.05
2019-02-08T11:14:48.620Z,100174.08
2019-02-08T11:19:56.346Z,100168.66
2019-02-08T11:24:57.934Z,100177.61
2019-02-08T11:29:59.523Z,100165.23
2019-02-08T11:35:01.093Z,100171.84
2019-02-08T11:40:06.398Z,100165.69
2019-02-08T11:45:08.409Z,100164.31
2019-02-08T11:50:13.544Z,100167.01
2019-02-08T11:55:15.233Z,100158.96
2019-02-08T12:00:38.879Z,100162.66
2019-02-08T12:12:17.820Z,100171.88
2019-02-08T12:17:20.197Z,100161.94
2019-02-08T12:22:21.925Z,100160.22
2019-02-08T12:27:23.997Z,100156.63
2019-02-08T12:32:26.042Z,100168.40
2019-02-08T12:37:27.792Z,100137.41
2019-02-08T12:42:30.164Z,100133.88
2019-02-08T12:47:32.303Z,100140.87
2019-02-08T12:52:34.004Z,100120.17
2019-02-08T12:57:35.686Z,100115.92
2019-02-08T13:02:37.299Z,100114.95
2019-02-08T13:07:38.867Z,100110.22
2019-02-08T13:12:40.636Z,100100.44
2019-02-08T13:17:42.227Z,100094.72
2019-02-08T13:22:43.908Z,100096.72
2019-02-08T13:27:45.753Z,100071.58
2019-02-08T13:32:47.653Z,100075.55
2019-02-08T13:37:49.762Z,100061.63
2019-02-08T13:42:51.432Z,100050.53
2019-02-08T13:47:53.199Z,100053.75
2019-02-08T13:52:54.820Z,100054.31
2019-02-08T13:57:56.641Z,100051.90
2019-02-08T14:02:58.338Z,100058.09
2019-02-08T14:07:59.918Z,100054.14
2019-02-08T14:13:01.841Z,100047.52
2019-02-08T14:18:03.982Z,100045.01
2019-02-08T14:23:05.715Z,100052.45
2019-02-08T14:28:07.451Z,100039.58
2019-02-08T14:33:09.205Z,100044.08
2019-02-08T14:38:14.619Z,100035.45
2019-02-08T14:43:16.201Z,100037.45
2019-02-08T14:48:17.887Z,100025.00
2019-02-08T14:53:19.557Z,100019.31
2019-02-08T14:58:21.422Z,100015.15
2019-02-08T15:03:23.122Z,99999.97
2019-02-08T15:08:24.772Z,99997.30
2019-02-08T15:13:26.550Z,99996.88
2019-02-08T15:18:28.338Z,100010.90
2019-02-08T15:23:29.922Z,100014.56
2019-02-08T15:28:31.587Z,100004.94
2019-02-08T15:33:33.138Z,100000.00
2019-02-08T15:38:34.727Z,99993.44
2019-02-08T15:43:36.423Z,99991.33
2019-02-08T15:48:38.000Z,99980.84
2019-02-08T15:53:39.669Z,99985.78
2019-02-08T15:58:41.405Z,99984.11
2019-02-08T16:03:43.089Z,99997.09
2019-02-08T16:08:44.749Z,99985.20
2019-02-08T16:13:46.748Z,99987.79
2019-02-08T16:18:48.423Z,99999.84
2019-02-08T16:23:50.154Z,100003.86
2019-02-08T16:28:52.080Z,99992.86
2019-02-08T16:33:53.800Z,99984.08
2019-02-08T16:38:55.713Z,99981.17
2019-02-08T16:43:57.472Z,99973.26
2019-02-08T16:48:59.939Z,99967.88
2019-02-08T16:54:01.691Z,99968.99
2019-02-08T16:59:04.017Z,99965.27
2019-02-08T17:04:05.785Z,99962.05
2019-02-08T17:09:11.465Z,99950.70
2019-02-08T17:14:14.739Z,99943.98
2019-02-08T17:19:16.473Z,99936.20
2019-02-08T17:24:18.274Z,99934.09
2019-02-08T17:29:19.964Z,99926.95
2019-02-08T17:34:21.730Z,99925.36
2019-02-08T17:39:23.440Z,99925.45
2019-02-08T17:44:25.072Z,99917.81
2019-02-08T17:49:26.648Z,99908.59
2019-02-08T17:54:29.143Z,99904.22
2019-02-08T17:59:31.029Z,99899.76
2019-02-08T18:04:32.665Z,99888.28
2019-02-08T18:09:34.212Z,99888.28
2019-02-08T18:14:35.902Z,99882.28
2019-02-08T18:19:37.714Z,99878.64
2019-02-08T18:24:39.541Z,99875.84
2019-02-08T18:29:41.127Z,99865.23
2019-02-08T18:34:42.753Z,99866.41
2019-02-08T18:39:44.333Z,99856.70
2019-02-08T18:44:46.055Z,99839.63
2019-02-08T18:49:47.617Z,99831.10
2019-02-08T18:54:49.289Z,99827.34
2019-02-08T18:59:51.009Z,99826.84
2019-02-08T19:04:52.751Z,99821.36
2019-02-08T19:09:54.489Z,99816.60
2019-02-08T19:14:56.126Z,99814.48
2019-02-08T19:19:57.794Z,99802.05
2019-02-08T19:24:59.692Z,99794.84
2019-02-08T19:30:01.301Z,99795.67
2019-02-08T19:35:04.784Z,99788.72
2019-02-08T19:40:08.733Z,99778.61
2019-02-08T19:45:11.892Z,99765.15
2019-02-08T19:50:18.570Z,99762.60
2019-02-08T19:55:20.356Z,99764.78
2019-02-08T20:00:23.769Z,99746.16
2019-02-08T20:05:25.459Z,99748.14
2019-02-08T20:10:29.590Z,99731.89
2019-02-08T20:15:31.286Z,99737.61
2019-02-08T20:20:33.049Z,99734.69
2019-02-08T20:25:34.777Z,99720.48
2019-02-08T20:30:36.792Z,99713.89
2019-02-08T20:35:38.607Z,99709.28
2019-02-08T20:40:48.576Z,99689.23
2019-02-08T20:45:50.696Z,99681.52
2019-02-08T20:50:52.509Z,99678.79
2019-02-08T20:55:54.232Z,99663.41
2019-02-08T21:00:55.915Z,99658.02
2019-02-08T21:05:57.682Z,99648.89
2019-02-08T21:10:59.365Z,99637.64
2019-02-08T21:16:01.054Z,99639.12
2019-02-08T21:21:02.741Z,99644.06
2019-02-08T21:26:04.499Z,99625.45
2019-02-08T21:31:06.175Z,99622.66
2019-02-08T21:36:07.918Z,99611.53
2019-02-08T21:41:09.604Z,99610.72
2019-02-08T21:46:11.266Z,99609.26
2019-02-08T21:51:12.975Z,99608.91
2019-02-08T21:56:14.543Z,99609.72
2019-02-08T22:01:16.268Z,99600.74
2019-02-08T22:06:17.943Z,99591.89
2019-02-08T22:11:19.764Z,99581.73
2019-02-08T22:16:21.498Z,99575.88
2019-02-08T22:21:23.201Z,99567.03
2019-02-08T22:26:24.904Z,99561.29
2019-02-08T22:31:26.497Z,99568.31
2019-02-08T22:36:28.072Z,99573.66
2019-02-08T22:41:29.811Z,99573.48
2019-02-08T22:46:31.339Z,99559.47
2019-02-08T22:51:33.092Z,99548.97
2019-02-08T22:56:34.744Z,99541.98
2019-02-08T23:01:40.291Z,99531.20
2019-02-08T23:06:45.007Z,99529.60
2019-02-08T23:11:45.749Z,99520.70
2019-02-08T23:16:47.446Z,99513.44
2019-02-08T23:21:49.042Z,99499.43
2019-02-08T23:26:50.629Z,99494.42
2019-02-08T23:31:52.378Z,99501.93
2019-02-08T23:36:53.954Z,99483.34
2019-02-08T23:41:55.648Z,99464.73
2019-02-08T23:46:57.317Z,99457.88
2019-02-08T23:51:59.015Z,99445.91
2019-02-08T23:57:00.720Z,99431.55
